Time;durP1;ratioP1;P1;durP2;ratioP2;P2;SDS_P1;SDS_P2;PMS_P1;PMS_P2;Temp;Humidity;BMP_temperature;BMP_pressure;BME280_temperature;BME280_humidity;BME280_pressure;Samples;Min_cycle;Max_cycle;Signal;HPM_P1;HPM_P2
2022/06/27 00:00:35;;;;;;;8.20;3.50;;;;;;;24.90;64.32;100868.34;2111071;28;20388;-74
2022/06/27 00:01:58;;;;;;;10.70;3.72;;;;;;;24.88;64.28;100857.56;2105536;28;20044;-74
2022/06/27 00:03:19;;;;;;;9.43;5.07;;;;;;;24.86;64.45;100854.06;2096489;28;20068;-74
2022/06/27 00:04:42;;;;;;;14.70;4.70;;;;;;;24.87;64.54;100861.22;2103284;28;20060;-73
2022/06/27 00:06:04;;;;;;;11.25;4.15;;;;;;;24.86;64.38;100855.88;2091160;28;20072;-74
2022/06/27 00:07:26;;;;;;;10.15;4.03;;;;;;;24.86;64.66;100861.28;2098225;28;20048;-74
2022/06/27 00:08:49;;;;;;;9.23;3.42;;;;;;;24.84;64.87;100852.34;2108866;27;20046;-74
2022/06/27 00:10:11;;;;;;;10.57;4.25;;;;;;;24.84;64.84;100855.06;2104558;28;20048;-74
2022/06/27 00:11:33;;;;;;;;;;;;;;;24.80;64.94;100850.75;2110465;28;20048;-74
2022/06/27 00:12:56;;;;;;;11.40;4.35;;;;;;;24.77;64.69;100856.25;2102124;28;19928;-74
2022/06/27 00:14:18;;;;;;;10.13;4.78;;;;;;;24.77;64.93;100851.72;2102339;28;20673;-74
2022/06/27 00:15:41;;;;;;;8.80;3.50;;;;;;;24.76;65.03;100851.78;2110824;28;20627;-74
2022/06/27 00:17:03;;;;;;;10.80;3.92;;;;;;;24.75;65.39;100850.03;2104494;28;20124;-74
2022/06/27 00:18:26;;;;;;;7.97;3.13;;;;;;;24.76;65.40;100844.56;2102998;28;20055;-74
2022/06/27 00:19:47;;;;;;;8.40;3.38;;;;;;;24.74;65.35;100835.69;2102658;28;20067;-74
2022/06/27 00:21:10;;;;;;;10.65;3.35;;;;;;;24.74;65.36;100841.09;2102726;28;20054;-74
2022/06/27 00:22:31;;;;;;;9.70;4.07;;;;;;;24.75;65.34;100829.31;2096759;28;20071;-74
2022/06/27 00:23:54;;;;;;;8.57;3.40;;;;;;;24.75;65.60;100828.44;2103066;28;20047;-73
2022/06/27 00:25:16;;;;;;;10.02;3.70;;;;;;;24.77;65.35;100826.53;2100145;28;20044;-74
2022/06/27 00:26:38;;;;;;;6.82;3.00;;;;;;;24.75;65.33;100826.59;2113262;28;20105;-74
2022/06/27 00:28:02;;;;;;;12.25;3.30;;;;;;;24.75;65.13;100832.00;2111118;28;20066;-74
2022/06/27 00:29:24;;;;;;;11.05;3.75;;;;;;;24.74;65.31;100829.41;2108737;28;20059;-73
2022/06/27 00:30:47;;;;;;;7.97;3.28;;;;;;;24.72;65.39;100828.56;2108503;28;20387;-74
2022/06/27 00:32:09;;;;;;;11.68;3.90;;;;;;;24.69;65.64;100823.28;2103653;28;20537;-74
2022/06/27 00:33:32;;;;;;;6.65;3.30;;;;;;;24.67;65.94;100823.38;2102320;28;20143;-74
2022/06/27 00:34:55;;;;;;;11.48;3.45;;;;;;;24.67;65.85;100823.38;2105139;28;20052;-74
2022/06/27 00:36:18;;;;;;;9.20;3.63;;;;;;;24.70;65.80;100825.03;2098470;28;20048;-74
2022/06/27 00:37:40;;;;;;;7.07;3.60;;;;;;;24.70;65.81;100833.16;2100615;28;20498;-74
2022/06/27 00:39:01;;;;;;;8.43;3.50;;;;;;;24.71;65.77;100838.50;2106603;28;20122;-74
2022/06/27 00:40:24;;;;;;;9.80;3.03;;;;;;;24.73;66.00;100844.72;2110264;28;20186;-73
2022/06/27 00:41:46;;;;;;;8.48;3.00;;;;;;;24.73;65.93;100839.31;2096773;28;20146;-74
2022/06/27 00:43:10;;;;;;;5.25;3.20;;;;;;;24.75;65.48;100839.22;2093810;28;20044;-74
2022/06/27 00:44:33;;;;;;;9.60;3.33;;;;;;;24.76;65.47;100835.59;2101893;28;20107;-74
2022/06/27 00:45:56;;;;;;;7.75;3.88;;;;;;;24.76;65.57;100841.00;2108197;28;20071;-74
2022/06/27 00:47:18;;;;;;;12.07;3.92;;;;;;;24.76;65.62;100841.88;2099249;28;20077;-74
2022/06/27 00:48:41;;;;;;;13.43;4.30;;;;;;;24.75;65.75;100823.91;2098207;28;20048;-74
2022/06/27 00:50:04;;;;;;;9.30;3.15;;;;;;;24.77;65.68;100829.25;2101095;28;20071;-74
2022/06/27 00:51:27;;;;;;;7.88;3.42;;;;;;;24.78;65.94;100831.00;2096041;28;20053;-74
2022/06/27 00:52:50;;;;;;;10.45;3.50;;;;;;;24.77;66.25;100824.72;2102396;28;20040;-74
2022/06/27 00:54:12;;;;;;;11.52;3.50;;;;;;;24.75;66.15;100810.41;2095595;28;20143;-73
2022/06/27 00:55:35;;;;;;;6.32;3.42;;;;;;;24.76;66.45;100817.56;2091211;28;20072;-74
2022/06/27 00:56:57;;;;;;;7.15;2.97;;;;;;;24.77;66.32;100827.44;2093015;28;20098;-74
2022/06/27 00:58:20;;;;;;;10.38;3.30;;;;;;;24.77;66.30;100831.94;2104792;28;20043;-74
2022/06/27 00:59:43;;;;;;;11.77;3.90;;;;;;;24.77;66.25;100823.84;2109822;28;20542;-74
2022/06/27 01:01:05;;;;;;;;;;;;;;;24.76;66.24;100836.47;2103963;28;20048;-74
2022/06/27 01:02:26;;;;;;;10.30;3.55;;;;;;;24.76;65.94;100836.47;2105086;28;19924;-73
2022/06/27 01:03:48;;;;;;;8.75;3.50;;;;;;;24.76;65.80;100832.88;2101912;28;20035;-74
2022/06/27 01:05:12;;;;;;;7.55;4.13;;;;;;;24.77;65.51;100834.66;2102335;28;20052;-73
2022/06/27 01:06:35;;;;;;;7.57;3.78;;;;;;;24.76;65.23;100832.88;2104585;28;20036;-74
2022/06/27 01:07:58;;;;;;;7.80;4.10;;;;;;;24.74;65.11;100824.88;2110919;28;20538;-74
2022/06/27 01:09:20;;;;;;;7.65;3.88;;;;;;;24.73;64.93;100828.50;2109500;28;20082;-74
2022/06/27 01:10:43;;;;;;;9.38;4.22;;;;;;;24.73;64.43;100828.50;2103749;28;20054;-74
2022/06/27 01:12:07;;;;;;;9.60;4.47;;;;;;;24.74;64.07;100821.28;2096454;28;20044;-74
2022/06/27 01:13:32;;;;;;;10.10;3.42;;;;;;;24.73;63.34;100824.94;2113220;28;20047;-73
2022/06/27 01:14:55;;;;;;;5.70;3.83;;;;;;;24.71;62.79;100826.81;2103067;28;20078;-74
2022/06/27 01:16:18;;;;;;;5.70;3.67;;;;;;;24.71;62.45;100824.09;2103787;28;20056;-74
2022/06/27 01:17:41;;;;;;;9.65;5.00;;;;;;;24.70;62.12;100831.31;2100176;28;20050;-74
2022/06/27 01:19:03;;;;;;;10.35;4.00;;;;;;;24.70;62.09;100825.94;2094709;28;20037;-74
2022/06/27 01:20:26;;;;;;;6.60;3.90;;;;;;;24.69;61.88;100820.59;2099265;28;20051;-74
2022/06/27 01:21:50;;;;;;;10.00;3.90;;;;;;;24.69;61.93;100826.88;2114324;28;20133;-74
2022/06/27 01:23:14;;;;;;;7.57;3.67;;;;;;;24.70;61.65;100830.44;2106046;28;20044;-73
2022/06/27 01:24:37;;;;;;;9.93;4.15;;;;;;;24.69;61.83;100823.28;2092308;28;20064;-74
2022/06/27 01:26:02;;;;;;;11.20;3.83;;;;;;;24.70;61.68;100819.66;2097980;28;20527;-73
2022/06/27 01:27:26;;;;;;;10.77;3.65;;;;;;;24.69;61.83;100820.59;2093458;28;20056;-74
2022/06/27 01:28:48;;;;;;;7.57;3.63;;;;;;;24.70;61.54;100820.53;2115498;28;20677;-74
2022/06/27 01:30:11;;;;;;;10.43;3.05;;;;;;;24.68;61.79;100821.56;2105319;28;20491;-74
2022/06/27 01:31:34;;;;;;;7.68;3.90;;;;;;;24.68;61.82;100818.84;2097246;28;20043;-73
2022/06/27 01:32:57;;;;;;;10.90;4.28;;;;;;;24.65;61.90;100816.25;2104560;28;20589;-73
2022/06/27 01:34:19;;;;;;;8.93;3.60;;;;;;;24.66;61.82;100812.63;2103757;28;20048;-74
2022/06/27 01:35:42;;;;;;;15.25;4.18;;;;;;;24.65;62.03;100822.53;2093323;28;20141;-73
2022/06/27 01:37:04;;;;;;;6.88;3.80;;;;;;;24.64;62.06;100815.38;2096819;28;20054;-74
2022/06/27 01:38:32;;;;;;;9.55;3.42;;;;;;;24.65;62.09;100818.97;2095880;28;20531;-74
2022/06/27 01:39:59;;;;;;;9.90;3.33;;;;;;;24.65;62.46;100810.88;2091705;28;20051;-74
2022/06/27 01:41:22;;;;;;;6.70;3.15;;;;;;;24.66;62.54;100805.41;2094942;28;20052;-74
2022/06/27 01:42:44;;;;;;;13.27;4.05;;;;;;;24.67;62.60;100787.38;2099307;28;20043;-74
2022/06/27 01:44:09;;;;;;;10.32;5.15;;;;;;;24.67;62.79;100801.78;2110883;28;20688;-74
2022/06/27 01:45:32;;;;;;;10.98;3.53;;;;;;;24.67;63.11;100807.16;2093669;28;20044;-74
2022/06/27 01:46:58;;;;;;;13.65;3.50;;;;;;;24.68;63.18;100808.06;2099242;28;20043;-74
2022/06/27 01:48:21;;;;;;;5.95;2.80;;;;;;;24.68;63.61;100802.66;2099140;28;20068;-74
2022/06/27 01:49:43;;;;;;;8.57;3.10;;;;;;;24.65;63.59;100800.94;2091083;28;20073;-74
2022/06/27 01:51:08;;;;;;;7.30;2.95;;;;;;;24.64;63.68;100791.09;2097278;28;20507;-74
2022/06/27 01:52:33;;;;;;;9.45;3.50;;;;;;;24.64;63.69;100793.78;2099625;28;20470;-73
2022/06/27 01:53:57;;;;;;;7.40;3.10;;;;;;;24.63;63.83;100797.41;2103415;28;20048;-74
2022/06/27 01:55:21;;;;;;;9.77;3.10;;;;;;;24.63;64.08;100801.00;2097494;28;20052;-74
2022/06/27 01:56:44;;;;;;;9.85;3.85;;;;;;;24.63;64.06;100801.00;2100964;28;20773;-75
2022/06/27 01:58:07;;;;;;;10.63;4.82;;;;;;;24.61;64.25;100794.78;2092539;28;20049;-74
2022/06/27 01:59:29;;;;;;;7.40;4.45;;;;;;;24.61;64.24;100796.63;2093251;28;20559;-74
2022/06/27 02:00:55;;;;;;;7.45;3.47;;;;;;;24.61;64.33;100799.31;2095356;28;20076;-74
2022/06/27 02:02:20;;;;;;;6.18;2.15;;;;;;;24.59;64.46;100798.50;2101607;28;20052;-74
2022/06/27 02:03:42;;;;;;;8.70;3.20;;;;;;;24.57;64.37;100806.66;2097779;28;20139;-73
2022/06/27 02:05:06;;;;;;;10.90;2.83;;;;;;;24.57;64.48;100803.97;2100633;28;20132;-74
2022/06/27 02:06:28;;;;;;;10.45;3.38;;;;;;;24.56;64.70;100799.50;2101752;28;20114;-74
2022/06/27 02:07:52;;;;;;;9.23;3.47;;;;;;;24.57;64.62;100805.78;2105358;28;20466;-74
2022/06/27 02:09:17;;;;;;;7.07;3.15;;;;;;;24.57;64.73;100803.06;2105815;28;20051;-73
2022/06/27 02:10:39;;;;;;;5.53;2.75;;;;;;;24.56;64.82;100810.28;2096860;28;20052;-74
2022/06/27 02:12:18;;;;;;;10.02;3.92;;;;;;;24.55;64.62;100813.06;2105816;27;20036;-74
2022/06/27 02:13:41;;;;;;;5.55;2.85;;;;;;;24.53;64.81;100806.84;2101876;28;20062;-73
2022/06/27 02:15:06;;;;;;;9.30;2.95;;;;;;;24.52;64.73;100803.28;2109104;28;20051;-74
2022/06/27 02:16:31;;;;;;;8.65;3.40;;;;;;;24.52;64.68;100808.69;2104259;28;20051;-74
2022/06/27 02:17:54;;;;;;;8.77;3.55;;;;;;;24.52;64.69;100810.50;2099372;28;20444;-73
2022/06/27 02:19:20;;;;;;;10.55;4.40;;;;;;;24.53;64.67;100796.06;2102475;28;20093;-73
2022/06/27 02:20:41;;;;;;;8.73;3.20;;;;;;;24.52;64.78;100805.09;2100314;28;20052;-74
2022/06/27 02:22:05;;;;;;;9.35;3.78;;;;;;;24.52;64.57;100813.19;2096217;28;20040;-74
2022/06/27 02:23:27;;;;;;;6.68;3.63;;;;;;;24.52;64.61;100803.28;2107833;28;20051;-73
2022/06/27 02:24:53;;;;;;;8.35;3.30;;;;;;;24.52;64.57;100807.78;2094211;28;20111;-74
2022/06/27 02:26:15;;;;;;;10.27;4.40;;;;;;;24.51;64.61;100811.44;2096578;28;20083;-74
2022/06/27 02:27:39;;;;;;;6.70;2.65;;;;;;;24.50;64.58;100804.28;2101735;28;20032;-74
2022/06/27 02:29:01;;;;;;;7.00;3.30;;;;;;;24.48;64.71;100811.56;2101839;28;20044;-74
2022/06/27 02:30:27;;;;;;;8.13;3.80;;;;;;;24.47;64.76;100794.50;2105619;28;20047;-74
2022/06/27 02:31:51;;;;;;;6.63;3.65;;;;;;;24.48;64.65;100798.06;2103888;28;20543;-74
2022/06/27 02:33:13;;;;;;;7.63;3.70;;;;;;;24.48;64.69;100798.94;2103851;28;20060;-73
2022/06/27 02:34:36;;;;;;;6.70;3.38;;;;;;;24.47;64.64;100797.19;2096539;28;20488;-74
2022/06/27 02:35:57;;;;;;;9.60;3.45;;;;;;;24.46;64.80;100797.25;2111200;27;20051;-73
2022/06/27 02:37:24;;;;;;;15.55;5.28;;;;;;;24.47;64.66;100799.91;2099594;28;20163;-74
2022/06/27 02:38:48;;;;;;;6.93;3.22;;;;;;;24.45;64.84;100790.97;2095073;28;20037;-75
2022/06/27 02:40:14;;;;;;;11.50;3.80;;;;;;;24.43;64.85;100795.53;2102138;28;20055;-74
2022/06/27 02:41:40;;;;;;;8.70;3.20;;;;;;;24.44;64.87;100800.00;2095332;28;20076;-74
2022/06/27 02:43:03;;;;;;;17.65;4.47;;;;;;;24.43;64.90;100791.97;2097513;28;20044;-74
2022/06/27 02:44:26;;;;;;;8.43;4.20;;;;;;;24.40;65.06;100795.69;2108815;27;20048;-74
2022/06/27 02:45:49;;;;;;;13.15;3.58;;;;;;;24.40;65.40;100782.19;2105688;28;20052;-74
2022/06/27 02:47:12;;;;;;;8.23;3.60;;;;;;;24.41;65.38;100789.34;2103998;28;20579;-74
2022/06/27 02:48:37;;;;;;;9.15;3.47;;;;;;;24.40;65.40;100792.09;2096806;28;20165;-74
2022/06/27 02:50:00;;;;;;;9.50;3.50;;;;;;;24.39;65.53;100783.13;2100839;28;20047;-74
2022/06/27 02:51:25;;;;;;;12.00;3.25;;;;;;;24.39;65.91;100793.94;2098004;28;20048;-74
2022/06/27 02:52:54;;;;;;;9.70;3.40;;;;;;;24.39;66.08;100787.66;2102813;28;20040;-74
2022/06/27 02:54:21;;;;;;;8.85;3.92;;;;;;;24.40;66.18;100793.00;2099342;28;20067;-74
2022/06/27 02:56:11;;;;;;;5.45;3.42;;;;;;;24.38;66.34;100794.88;2112927;28;20092;-74
2022/06/27 02:57:38;;;;;;;7.63;3.58;;;;;;;24.38;66.43;100777.78;2103214;28;20075;-74
2022/06/27 02:59:05;;;;;;;12.98;3.85;;;;;;;24.38;66.98;100784.06;2097064;28;20041;-74
2022/06/27 03:00:28;;;;;;;8.77;3.50;;;;;;;24.38;66.96;100789.47;2102834;28;20044;-74
2022/06/27 03:01:53;;;;;;;11.88;4.05;;;;;;;24.38;67.13;100791.28;2096131;28;20513;-73
2022/06/27 03:03:25;;;;;;;8.85;3.70;;;;;;;24.38;67.22;100791.28;2094643;28;20159;-73
2022/06/27 03:04:48;;;;;;;8.80;3.35;;;;;;;24.38;67.13;100786.75;2116037;27;20039;-74
2022/06/27 03:06:11;;;;;;;9.20;3.95;;;;;;;24.38;67.43;100784.06;2099781;28;20036;-74
2022/06/27 03:07:38;;;;;;;5.85;3.33;;;;;;;24.39;67.44;100782.25;2104021;28;20090;-74
2022/06/27 03:09:01;;;;;;;14.80;4.78;;;;;;;24.39;67.43;100784.94;2107878;28;20044;-74
2022/06/27 03:10:22;;;;;;;9.77;4.05;;;;;;;24.38;67.59;100773.28;2096894;28;20040;-75
2022/06/27 03:11:48;;;;;;;;;;;;;;;24.35;67.82;100784.19;2094568;28;20084;-74
2022/06/27 03:13:12;;;;;;;13.63;4.32;;;;;;;24.33;67.81;100777.97;2098141;28;19920;-74
2022/06/27 03:14:35;;;;;;;9.45;4.18;;;;;;;24.33;67.76;100777.97;2094496;28;20570;-74
2022/06/27 03:15:56;;;;;;;10.70;4.38;;;;;;;24.35;67.77;100776.09;2094107;28;20072;-74
2022/06/27 03:17:19;;;;;;;10.23;3.70;;;;;;;24.35;67.97;100781.47;2096618;28;20357;-74
2022/06/27 03:19:00;;;;;;;10.48;3.67;;;;;;;24.38;68.09;100788.59;2113401;28;20061;-74
2022/06/27 03:20:37;;;;;;;8.23;3.70;;;;;;;24.40;68.02;100787.59;2110390;28;20055;-74
2022/06/27 03:22:23;;;;;;;10.30;4.22;;;;;;;24.47;68.11;100791.81;2107804;28;20051;-74
2022/06/27 03:23:46;;;;;;;9.25;4.00;;;;;;;24.52;67.79;100795.19;2094528;28;20055;-74
2022/06/27 03:25:10;;;;;;;9.77;3.63;;;;;;;24.55;67.90;100789.63;2095680;28;20472;-74
2022/06/27 03:26:31;;;;;;;8.70;3.80;;;;;;;24.60;67.76;100789.47;2091935;28;20052;-74
2022/06/27 03:27:56;;;;;;;9.02;3.65;;;;;;;24.67;67.83;100803.59;2094531;28;20519;-74
2022/06/27 03:29:22;;;;;;;10.20;3.55;;;;;;;24.70;67.59;100798.91;2097012;28;20381;-74
2022/06/27 03:30:43;;;;;;;7.97;4.10;;;;;;;24.75;67.44;100802.31;2102332;28;20048;-74
2022/06/27 03:32:07;;;;;;;8.18;3.92;;;;;;;24.82;67.43;100800.22;2115930;27;20201;-75
2022/06/27 03:33:29;;;;;;;11.65;4.05;;;;;;;24.90;67.13;100793.59;2104970;28;20047;-74
2022/06/27 03:34:59;;;;;;;10.13;5.05;;;;;;;24.96;67.07;100792.44;2092378;28;20912;-74
2022/06/27 03:36:20;;;;;;;9.02;3.70;;;;;;;25.04;66.94;100787.59;2091752;28;20059;-74
2022/06/27 03:37:43;;;;;;;8.32;4.07;;;;;;;25.10;66.65;100786.44;2093457;28;20484;-74
2022/06/27 03:39:06;;;;;;;6.07;3.55;;;;;;;25.18;66.52;100792.41;2116214;27;20031;-74
2022/06/27 03:40:27;;;;;;;10.30;3.80;;;;;;;25.24;66.56;100795.69;2098597;28;20041;-74
2022/06/27 03:41:51;;;;;;;15.80;3.97;;;;;;;25.33;66.36;100798.00;2083059;28;20127;-74
2022/06/27 03:43:15;;;;;;;8.50;3.58;;;;;;;25.40;66.11;100810.28;2106159;28;20093;-73
2022/06/27 03:44:37;;;;;;;8.68;3.53;;;;;;;25.48;65.63;100801.81;2095663;28;20044;-74
2022/06/27 03:46:00;;;;;;;10.23;3.92;;;;;;;25.55;65.09;100783.50;2110724;28;20047;-74
2022/06/27 03:47:21;;;;;;;7.50;3.60;;;;;;;25.63;64.69;100786.75;2095498;28;20468;-73
2022/06/27 03:50:53;;;;;;;7.35;2.75;;;;;;;25.83;64.20;100796.66;2113563;28;20101;-74
2022/06/27 03:52:14;;;;;;;8.65;3.65;;;;;;;25.91;63.88;100795.34;2104925;28;20090;-74
2022/06/27 03:53:37;;;;;;;7.78;3.45;;;;;;;26.00;63.61;100792.19;2101052;28;20105;-74
2022/06/27 03:54:59;;;;;;;10.15;3.75;;;;;;;26.10;63.45;100801.63;2099887;28;20055;-74
2022/06/27 03:56:21;;;;;;;9.32;4.00;;;;;;;26.20;62.71;100800.22;2099785;28;20078;-75
2022/06/27 03:57:49;;;;;;;8.88;2.90;;;;;;;26.30;62.52;100802.53;2101536;28;20052;-74
2022/06/27 03:59:15;;;;;;;6.65;3.13;;;;;;;26.38;62.05;100803.06;2106661;28;20050;-75
2022/06/27 04:00:36;;;;;;;8.35;3.20;;;;;;;26.48;61.60;100809.75;2092434;28;20501;-74
2022/06/27 04:02:02;;;;;;;8.35;2.92;;;;;;;26.58;61.40;100800.22;2100160;28;20044;-74
2022/06/27 04:03:35;;;;;;;8.82;3.50;;;;;;;26.68;61.04;100806.94;2095738;28;20048;-74
2022/06/27 04:05:09;;;;;;;10.20;3.22;;;;;;;26.79;60.63;100801.84;2100981;28;20397;-73
2022/06/27 04:06:32;;;;;;;5.93;2.70;;;;;;;26.88;60.26;100806.81;2109925;28;20080;-73
2022/06/27 04:07:54;;;;;;;4.68;2.80;;;;;;;26.96;59.79;100810.03;2101251;28;20083;-74
2022/06/27 04:09:18;;;;;;;5.88;3.67;;;;;;;27.02;59.63;100806.13;2092644;28;20143;-73
2022/06/27 04:10:40;;;;;;;7.65;3.38;;;;;;;27.12;59.36;100815.53;2099260;28;20632;-74
2022/06/27 04:12:03;;;;;;;11.75;3.00;;;;;;;27.28;59.25;100816.47;2107631;28;20058;-74
2022/06/27 04:14:00;;;;;;;9.60;4.47;;;;;;;27.50;58.75;100810.81;2095170;28;20058;-74
2022/06/27 04:15:40;;;;;;;8.30;3.03;;;;;;;27.66;58.19;100822.59;2085817;28;20492;-74
2022/06/27 04:17:41;;;;;;;4.85;3.17;;;;;;;27.80;57.73;100808.28;2096074;28;20121;-74
2022/06/27 04:19:39;;;;;;;8.63;3.15;;;;;;;27.95;57.23;100821.00;2065205;28;20066;-73
2022/06/27 04:21:20;;;;;;;7.43;2.80;;;;;;;28.11;56.91;100834.59;2087428;28;20052;-73
2022/06/27 04:23:00;;;;;;;8.77;3.55;;;;;;;28.31;56.30;100826.22;2074944;28;20168;-73
2022/06/27 04:24:42;;;;;;;4.68;2.35;;;;;;;28.51;55.61;100828.69;2114363;27;20043;-73
2022/06/27 04:26:09;;;;;;;8.02;2.40;;;;;;;28.64;55.11;100828.84;2096522;28;20427;-74
2022/06/27 04:27:30;;;;;;;8.18;2.95;;;;;;;28.70;54.32;100828.50;2099637;28;20055;-73
2022/06/27 04:28:53;;;;;;;;;;;;;;;28.78;53.89;100830.78;2093181;28;20052;-74
2022/06/27 04:30:17;;;;;;;8.90;2.70;;;;;;;28.96;53.85;100837.84;2094522;28;19920;-74
2022/06/27 04:31:41;;;;;;;6.57;2.53;;;;;;;29.15;53.11;100841.22;2107855;28;20098;-73
2022/06/27 04:33:03;;;;;;;6.65;2.33;;;;;;;29.27;52.77;100835.06;2095640;28;20045;-74
2022/06/27 04:34:25;;;;;;;;;;;;;;;29.38;52.15;100847.16;2102737;28;20052;-74
2022/06/27 04:35:48;;;;;;;6.18;2.70;;;;;;;29.57;52.23;100847.78;2102586;28;20257;-74
2022/06/27 04:37:09;;;;;;;7.50;2.80;;;;;;;29.73;51.63;100848.59;2097381;28;20103;-74
2022/06/27 04:38:47;;;;;;;6.32;2.58;;;;;;;29.91;51.09;100844.69;2111263;28;20043;-74
2022/06/27 04:40:45;;;;;;;9.32;2.45;;;;;;;30.24;50.61;100855.31;2103899;28;20058;-73
2022/06/27 04:42:07;;;;;;;7.40;2.85;;;;;;;30.49;49.98;100854.63;2094341;28;20543;-74
2022/06/27 04:43:29;;;;;;;;;;;;;;;30.65;49.79;100847.19;2092944;28;20052;-73
2022/06/27 04:44:50;;;;;;;;;;;;;;;30.80;49.09;100837.97;2091728;28;19920;-74
2022/06/27 04:46:13;;;;;;;8.40;2.85;;;;;;;30.95;48.82;100843.34;2109521;28;19997;-74
2022/06/27 04:47:57;;;;;;;9.40;2.50;;;;;;;31.15;47.97;100841.06;2082171;28;20076;-74
2022/06/27 04:49:20;;;;;;;7.75;3.00;;;;;;;31.34;46.84;100834.31;2093125;28;20528;-74
2022/06/27 04:50:42;;;;;;;9.30;2.70;;;;;;;31.40;46.14;100834.75;2100693;28;20143;-73
2022/06/27 04:52:07;;;;;;;6.43;2.70;;;;;;;31.54;45.71;100840.13;2095507;28;20044;-73
2022/06/27 04:53:30;;;;;;;6.93;2.65;;;;;;;31.69;44.81;100831.88;2096837;28;20056;-74
2022/06/27 04:54:53;;;;;;;8.27;1.98;;;;;;;31.81;43.98;100834.59;2107539;28;20054;-74
2022/06/27 04:56:16;;;;;;;7.57;2.53;;;;;;;31.94;43.25;100846.41;2090699;28;20041;-74
2022/06/27 04:57:42;;;;;;;9.55;2.17;;;;;;;32.09;42.62;100847.16;2083072;28;20140;-73
2022/06/27 04:59:04;;;;;;;8.25;2.75;;;;;;;32.23;42.35;100840.72;2101537;28;20149;-73
2022/06/27 05:00:29;;;;;;;8.00;2.60;;;;;;;32.36;41.64;100841.56;2095392;28;20504;-74
2022/06/27 05:02:10;;;;;;;7.95;2.15;;;;;;;32.52;41.58;100849.47;2110590;28;20496;-75
2022/06/27 05:03:34;;;;;;;7.03;2.35;;;;;;;32.71;40.72;100839.81;2093443;28;20123;-74
2022/06/27 05:05:01;;;;;;;8.27;2.17;;;;;;;32.71;40.16;100841.66;2093634;28;20452;-74
2022/06/27 05:06:23;;;;;;;6.88;2.10;;;;;;;32.73;39.77;100846.03;2095308;28;20040;-74
2022/06/27 05:07:46;;;;;;;4.60;1.77;;;;;;;32.88;39.59;100863.16;2099428;28;20064;-73
2022/06/27 05:09:08;;;;;;;4.18;1.90;;;;;;;33.04;39.22;100849.16;2101225;28;20115;-74
2022/06/27 05:10:31;;;;;;;5.57;2.20;;;;;;;33.16;38.83;100845.47;2101522;28;20036;-73
2022/06/27 05:11:54;;;;;;;6.28;2.22;;;;;;;33.24;38.38;100854.00;2091816;28;20051;-73
2022/06/27 05:13:16;;;;;;;5.40;2.10;;;;;;;33.24;38.32;100854.00;2098725;28;20044;-73
2022/06/27 05:14:39;;;;;;;4.43;1.60;;;;;;;33.22;38.15;100850.50;2092382;28;20040;-74
2022/06/27 05:16:02;;;;;;;10.35;2.50;;;;;;;33.32;37.79;100847.94;2101062;28;20036;-74
2022/06/27 05:17:25;;;;;;;7.03;2.05;;;;;;;33.37;37.65;100841.09;2090201;28;20092;-73
2022/06/27 05:18:48;;;;;;;8.32;1.70;;;;;;;33.45;37.58;100855.06;2107353;28;20074;-73
2022/06/27 05:20:12;;;;;;;6.22;1.90;;;;;;;33.48;37.37;100846.59;2095446;28;20940;-73
2022/06/27 05:21:34;;;;;;;8.77;1.92;;;;;;;33.56;37.50;100844.13;2099334;28;20498;-73
2022/06/27 05:22:57;;;;;;;8.95;3.92;;;;;;;33.69;37.22;100849.50;2093714;28;20217;-74
2022/06/27 05:24:20;;;;;;;6.22;1.98;;;;;;;33.71;37.30;100847.56;2112688;28;20047;-74
2022/06/27 05:25:44;;;;;;;6.10;2.13;;;;;;;33.83;37.36;100852.06;2100647;28;20530;-73
2022/06/27 05:27:06;;;;;;;3.80;1.90;;;;;;;33.93;37.12;100846.72;2094487;28;20139;-75
2022/06/27 05:28:29;;;;;;;6.38;2.20;;;;;;;33.98;37.25;100839.88;2105278;28;20048;-73
2022/06/27 05:29:51;;;;;;;9.13;2.13;;;;;;;33.99;37.15;100854.47;2094811;28;20060;-74
2022/06/27 05:31:14;;;;;;;5.57;1.85;;;;;;;33.97;36.97;100846.34;2091491;28;20405;-74
2022/06/27 05:32:37;;;;;;;9.60;2.50;;;;;;;34.06;36.61;100860.31;2091004;28;20089;-74
2022/06/27 05:34:02;;;;;;;6.00;1.85;;;;;;;34.08;36.44;100858.28;2089958;28;20105;-74
2022/06/27 05:35:24;;;;;;;7.03;2.10;;;;;;;34.19;36.35;100853.72;2106113;28;20043;-73
2022/06/27 05:36:48;;;;;;;7.68;2.83;;;;;;;34.18;36.25;100864.78;2098223;28;20047;-74
2022/06/27 05:38:10;;;;;;;5.15;1.70;;;;;;;34.29;36.04;100868.44;2117445;27;20043;-74
2022/06/27 05:39:34;;;;;;;4.88;1.70;;;;;;;34.36;36.08;100866.94;2104360;28;20135;-73
2022/06/27 05:40:57;;;;;;;9.25;2.10;;;;;;;34.40;36.12;100868.41;2108891;27;20147;-74
2022/06/27 05:42:20;;;;;;;6.60;1.85;;;;;;;34.42;35.77;100868.28;2093717;28;20119;-73
2022/06/27 05:43:43;;;;;;;4.03;1.88;;;;;;;34.43;35.72;100863.69;2104045;28;20087;-74
2022/06/27 05:45:07;;;;;;;8.70;2.00;;;;;;;34.52;36.01;100882.13;2108926;28;20039;-74
2022/06/27 05:46:40;;;;;;;6.72;2.40;;;;;;;34.63;35.82;100879.34;2093144;28;20075;-74
2022/06/27 05:48:21;;;;;;;6.57;2.00;;;;;;;34.68;35.99;100874.34;2110747;28;20052;-74
2022/06/27 05:50:04;;;;;;;9.05;1.90;;;;;;;34.55;36.23;100888.22;2106241;28;20074;-74
2022/06/27 05:51:28;;;;;;;7.13;2.10;;;;;;;34.50;36.00;100879.50;2086253;28;20110;-74
2022/06/27 05:52:53;;;;;;;6.78;1.80;;;;;;;34.55;35.96;100873.63;2097918;28;20040;-74
2022/06/27 05:54:15;;;;;;;7.82;2.08;;;;;;;34.46;35.89;100877.16;2100870;28;20035;-74
2022/06/27 05:55:38;;;;;;;4.72;1.60;;;;;;;34.46;35.89;100877.16;2098764;28;20101;-74
2022/06/27 05:57:01;;;;;;;5.78;2.15;;;;;;;34.62;35.85;100878.47;2108985;28;20084;-74
2022/06/27 05:58:23;;;;;;;6.50;2.00;;;;;;;34.70;35.71;100875.97;2092161;28;20118;-74
2022/06/27 05:59:46;;;;;;;4.30;1.77;;;;;;;34.81;35.39;100874.22;2106927;28;20043;-75
2022/06/27 06:01:10;;;;;;;4.75;2.03;;;;;;;34.82;35.23;100878.72;2097083;28;20041;-74
2022/06/27 06:02:34;;;;;;;8.18;2.22;;;;;;;34.76;35.24;100877.38;2092869;28;20044;-74
2022/06/27 06:03:57;;;;;;;4.90;1.88;;;;;;;34.71;35.41;100871.41;2105023;28;20039;-74
2022/06/27 06:05:21;;;;;;;6.32;2.00;;;;;;;34.70;35.17;100884.22;2105226;28;20180;-74
2022/06/27 06:06:44;;;;;;;4.88;2.00;;;;;;;34.73;35.36;100883.97;2105444;28;20036;-74
2022/06/27 06:08:08;;;;;;;7.10;1.92;;;;;;;34.95;35.00;100884.91;2094483;28;20093;-74
2022/06/27 06:09:32;;;;;;;2.85;1.73;;;;;;;35.09;34.86;100876.38;2108933;28;20078;-74
2022/06/27 06:10:54;;;;;;;3.45;1.85;;;;;;;35.15;34.61;100886.84;2107971;28;20043;-74
2022/06/27 06:12:19;;;;;;;5.70;2.00;;;;;;;35.30;34.88;100890.19;2105462;28;20044;-74
2022/06/27 06:13:43;;;;;;;4.88;1.55;;;;;;;35.32;34.79;100883.53;2100473;28;20384;-74
2022/06/27 06:15:08;;;;;;;7.30;3.08;;;;;;;35.22;35.17;100876.25;2103341;28;20498;-75
2022/06/27 06:16:32;;;;;;;4.90;1.90;;;;;;;35.26;35.21;100883.19;2094589;28;20159;-75
2022/06/27 06:17:56;;;;;;;9.52;2.00;;;;;;;35.30;35.30;100890.19;2102679;28;20041;-74
2022/06/27 06:19:19;;;;;;;7.60;2.55;;;;;;;35.40;35.19;100881.03;2105680;28;20496;-74
2022/06/27 06:20:42;;;;;;;4.13;2.10;;;;;;;35.49;35.03;100890.34;2109318;28;20052;-74
2022/06/27 06:22:05;;;;;;;7.13;2.25;;;;;;;35.61;34.72;100867.28;2110915;28;20043;-74
2022/06/27 06:23:28;;;;;;;7.13;1.98;;;;;;;35.65;34.82;100878.88;2105250;28;20044;-74
2022/06/27 06:24:50;;;;;;;5.30;2.00;;;;;;;35.46;34.82;100880.47;2096936;28;20576;-74
2022/06/27 06:26:17;;;;;;;5.70;2.00;;;;;;;35.26;34.92;100881.34;2108277;28;20188;-74
2022/06/27 06:27:40;;;;;;;4.97;1.90;;;;;;;35.13;34.85;100884.22;2097948;28;20095;-74
2022/06/27 06:29:12;;;;;;;6.25;1.83;;;;;;;35.14;34.85;100882.34;2100323;28;20725;-74
2022/06/27 06:30:35;;;;;;;5.75;2.20;;;;;;;35.10;34.92;100883.63;2095724;28;20076;-74
2022/06/27 06:32:05;;;;;;;8.93;2.60;;;;;;;35.05;34.91;100880.41;2100198;28;20074;-74
2022/06/27 06:33:29;;;;;;;6.32;2.00;;;;;;;35.00;35.15;100893.63;2092327;28;20704;-74
2022/06/27 06:34:51;;;;;;;6.88;1.90;;;;;;;35.04;35.44;100878.66;2107602;28;20104;-74
2022/06/27 06:36:16;;;;;;;6.40;2.00;;;;;;;35.07;35.23;100892.09;2105790;28;20044;-74